Time;durP1;ratioP1;P1;durP2;ratioP2;P2;SDS_P1;SDS_P2;PMS_P1;PMS_P2;Temp;Humidity;BMP_temperature;BMP_pressure;BME280_temperature;BME280_humidity;BME280_pressure;Samples;Min_cycle;Max_cycle;Signal;HPM_P1;HPM_P2
2022/06/26 00:00:40;;;;;;;24.52;22.40;;;20.10;99.90;;;;;;2096584;28;20455;-67
2022/06/26 00:01:41;;;;;;;24.60;22.35;;;20.10;99.90;;;;;;2105724;28;20028;-67
2022/06/26 00:02:42;;;;;;;23.63;21.42;;;20.10;99.90;;;;;;2105803;28;20510;-67
2022/06/26 00:03:43;;;;;;;23.60;21.50;;;20.00;99.90;;;;;;2105851;28;20030;-67
2022/06/26 00:04:44;;;;;;;23.30;20.92;;;20.00;99.90;;;;;;2105731;28;20035;-68
2022/06/26 00:05:45;;;;;;;23.77;21.67;;;20.00;99.90;;;;;;2105697;28;20032;-67
2022/06/26 00:06:45;;;;;;;25.23;22.95;;;20.00;99.90;;;;;;2105027;28;20032;-68
2022/06/26 00:07:46;;;;;;;25.08;22.60;;;20.00;99.90;;;;;;2104975;28;20032;-67
2022/06/26 00:08:47;;;;;;;25.00;22.60;;;20.00;99.90;;;;;;2104985;28;20028;-67
2022/06/26 00:09:48;;;;;;;24.08;21.88;;;20.00;99.90;;;;;;2105509;28;20528;-67
2022/06/26 00:10:48;;;;;;;24.98;22.58;;;20.00;99.90;;;;;;2105427;28;20439;-67
2022/06/26 00:11:49;;;;;;;24.75;22.45;;;20.00;99.90;;;;;;2105508;28;20139;-67
2022/06/26 00:12:50;;;;;;;23.92;21.73;;;20.00;99.90;;;;;;2105505;28;20382;-67
2022/06/26 00:13:50;;;;;;;24.60;22.30;;;20.00;99.90;;;;;;2105601;28;20432;-67
2022/06/26 00:14:51;;;;;;;24.05;21.75;;;20.00;99.90;;;;;;2105545;28;20035;-67
2022/06/26 00:15:52;;;;;;;24.00;21.83;;;19.90;99.90;;;;;;2105621;28;20108;-68
2022/06/26 00:16:53;;;;;;;23.85;21.50;;;19.90;99.90;;;;;;2105707;28;20035;-68
2022/06/26 00:17:54;;;;;;;24.35;22.15;;;19.90;99.90;;;;;;2105657;28;20630;-68
2022/06/26 00:18:56;;;;;;;23.92;21.83;;;19.90;99.90;;;;;;2105234;28;20024;-68
2022/06/26 00:19:57;;;;;;;24.85;22.45;;;19.90;99.90;;;;;;2105198;28;20032;-68
2022/06/26 00:20:57;;;;;;;25.45;23.15;;;19.90;99.90;;;;;;2105451;28;20431;-67
2022/06/26 00:21:58;;;;;;;26.13;23.48;;;19.90;99.90;;;;;;2104878;28;20044;-68
2022/06/26 00:23:01;;;;;;;26.35;23.77;;;19.80;99.90;;;;;;2104895;28;20028;-67
2022/06/26 00:24:02;;;;;;;25.00;22.50;;;19.90;99.90;;;;;;2105563;28;20486;-67
2022/06/26 00:25:03;;;;;;;24.20;22.00;;;19.90;99.90;;;;;;2105400;28;20034;-67
2022/06/26 00:26:04;;;;;;;23.20;21.05;;;19.90;99.90;;;;;;2105477;28;20107;-67
2022/06/26 00:27:06;;;;;;;23.48;21.33;;;19.90;99.90;;;;;;2105518;28;20075;-68
2022/06/26 00:28:07;;;;;;;24.10;22.00;;;19.90;99.90;;;;;;2104461;28;20052;-67
2022/06/26 00:29:08;;;;;;;25.83;23.52;;;19.90;99.90;;;;;;2104732;28;20666;-68
2022/06/26 00:30:09;;;;;;;24.83;22.63;;;19.90;99.90;;;;;;2105372;28;20032;-68
2022/06/26 00:31:09;;;;;;;25.13;22.73;;;19.90;99.90;;;;;;2105540;28;20488;-67
2022/06/26 00:32:10;;;;;;;24.40;22.20;;;19.90;99.90;;;;;;2105505;28;20030;-67
2022/06/26 00:33:11;;;;;;;28.00;25.30;;;19.90;99.90;;;;;;2105822;28;20552;-67
2022/06/26 00:34:12;;;;;;;25.90;23.42;;;19.80;99.90;;;;;;2105582;28;20389;-67
2022/06/26 00:35:13;;;;;;;26.00;23.60;;;19.80;99.90;;;;;;2105601;28;20024;-68
2022/06/26 00:36:13;;;;;;;26.23;23.77;;;19.80;99.90;;;;;;2105510;28;20118;-68
2022/06/26 00:37:14;;;;;;;26.00;23.60;;;19.80;99.90;;;;;;2105559;28;20028;-68
2022/06/26 00:38:14;;;;;;;25.92;23.60;;;19.80;99.90;;;;;;2104672;28;20024;-68
2022/06/26 00:39:15;;;;;;;26.27;23.73;;;19.80;99.90;;;;;;2104933;28;20465;-68
2022/06/26 00:40:17;;;;;;;24.70;22.35;;;19.80;99.90;;;;;;2096174;28;20162;-68
2022/06/26 00:41:18;;;;;;;23.90;21.77;;;19.80;99.90;;;;;;2096316;28;20040;-66
2022/06/26 00:42:19;;;;;;;23.73;21.55;;;19.80;99.90;;;;;;2104620;28;20165;-67
2022/06/26 00:43:19;;;;;;;23.63;21.25;;;19.80;99.90;;;;;;2096323;28;20024;-68
2022/06/26 00:44:22;;;;;;;23.85;21.75;;;19.80;99.90;;;;;;2096056;28;20028;-68
2022/06/26 00:45:23;;;;;;;24.40;22.17;;;19.80;99.90;;;;;;2104766;28;20024;-67
2022/06/26 00:46:24;;;;;;;23.58;21.48;;;19.70;99.90;;;;;;2096255;28;20028;-68
2022/06/26 00:47:26;;;;;;;23.75;21.45;;;19.70;99.90;;;;;;2104720;28;20059;-67
2022/06/26 00:48:26;;;;;;;24.13;21.70;;;19.70;99.90;;;;;;2104546;28;20085;-67
2022/06/26 00:49:28;;;;;;;27.05;24.33;;;19.70;99.90;;;;;;2096209;28;20608;-67
2022/06/26 00:50:29;;;;;;;25.83;23.33;;;19.70;99.90;;;;;;2104508;28;20085;-68
2022/06/26 00:51:29;;;;;;;25.63;23.23;;;19.70;99.90;;;;;;2104729;28;20020;-67
2022/06/26 00:52:31;;;;;;;25.40;23.00;;;19.70;99.90;;;;;;2104591;28;20055;-67
2022/06/26 00:53:32;;;;;;;26.67;24.15;;;19.70;99.90;;;;;;2104575;28;20017;-67
2022/06/26 00:54:33;;;;;;;27.63;24.83;;;19.70;99.90;;;;;;2104565;28;20068;-67
2022/06/26 00:55:34;;;;;;;24.75;22.55;;;19.60;99.90;;;;;;2105300;28;20056;-68
2022/06/26 00:56:36;;;;;;;24.90;22.60;;;19.60;99.90;;;;;;2096250;28;20444;-68
2022/06/26 00:57:38;;;;;;;24.92;22.63;;;19.60;99.90;;;;;;2080085;28;20753;-67
2022/06/26 00:58:38;;;;;;;24.42;22.23;;;19.60;99.90;;;;;;2096124;28;20103;-67
2022/06/26 00:59:39;;;;;;;23.98;21.70;;;19.60;99.90;;;;;;2096206;28;20028;-67
2022/06/26 01:00:41;;;;;;;23.20;21.00;;;19.60;99.90;;;;;;2096024;28;20442;-68
2022/06/26 01:01:42;;;;;;;23.23;21.13;;;19.60;99.90;;;;;;2105267;28;20035;-67
2022/06/26 01:02:43;;;;;;;23.50;21.23;;;19.60;99.90;;;;;;2104327;28;20105;-68
2022/06/26 01:03:43;;;;;;;22.98;20.92;;;19.60;99.90;;;;;;2096246;28;20064;-67
2022/06/26 01:04:44;;;;;;;24.95;22.70;;;19.60;99.90;;;;;;2104660;28;20158;-68
2022/06/26 01:05:45;;;;;;;25.58;23.17;;;19.60;99.90;;;;;;2105411;28;20077;-67
2022/06/26 01:06:47;;;;;;;22.85;20.83;;;19.60;99.90;;;;;;2104599;28;20051;-68
2022/06/26 01:10:11;;;;;;;23.70;21.50;;;19.50;99.90;;;;;;2105442;28;20061;-67
2022/06/26 01:11:17;;;;;;;23.55;21.45;;;19.50;99.90;;;;;;2105917;28;20028;-68
2022/06/26 01:12:18;;;;;;;23.52;21.42;;;19.50;99.90;;;;;;2105449;28;20021;-67
2022/06/26 01:13:19;;;;;;;24.85;22.40;;;19.50;99.90;;;;;;2104742;28;20024;-67
2022/06/26 01:14:20;;;;;;;24.15;21.95;;;19.50;99.90;;;;;;2104698;28;20036;-67
2022/06/26 01:15:21;;;;;;;24.38;22.02;;;19.50;99.90;;;;;;2104751;28;20818;-68
2022/06/26 01:16:26;;;;;;;23.88;21.63;;;19.40;99.90;;;;;;2096962;28;20862;-67
2022/06/26 01:17:28;;;;;;;26.38;23.83;;;19.50;99.90;;;;;;2088254;28;20385;-67
2022/06/26 01:18:29;;;;;;;24.58;22.25;;;19.40;99.90;;;;;;2088047;28;20036;-66
2022/06/26 01:19:30;;;;;;;24.02;21.83;;;19.40;99.90;;;;;;2096333;28;20520;-66
2022/06/26 01:20:31;;;;;;;25.13;22.73;;;19.40;99.90;;;;;;2104768;28;20027;-67
2022/06/26 01:21:34;;;;;;;23.42;21.23;;;19.40;99.90;;;;;;2104671;28;20032;-66
2022/06/26 01:22:35;;;;;;;24.58;22.27;;;19.40;99.90;;;;;;2096154;28;20024;-66
2022/06/26 01:23:36;;;;;;;24.35;22.05;;;19.40;99.90;;;;;;2087878;28;20124;-67
2022/06/26 01:24:37;;;;;;;23.08;20.98;;;19.40;99.90;;;;;;2104674;28;20057;-66
2022/06/26 01:25:45;;;;;;;22.20;20.10;;;19.40;99.90;;;;;;2104502;28;20039;-68
2022/06/26 01:26:47;;;;;;;25.05;22.73;;;19.40;99.90;;;;;;2097349;28;20028;-66
2022/06/26 01:27:48;;;;;;;24.17;21.88;;;19.40;99.90;;;;;;2104586;28;20393;-67
2022/06/26 01:28:51;;;;;;;24.08;21.75;;;19.40;99.90;;;;;;2104109;28;20702;-66
2022/06/26 01:29:52;;;;;;;23.23;21.08;;;19.40;99.90;;;;;;2104292;28;20024;-66
2022/06/26 01:30:53;;;;;;;22.55;20.42;;;19.40;99.90;;;;;;2104546;28;20028;-66
2022/06/26 01:31:54;;;;;;;26.40;23.90;;;19.40;99.90;;;;;;2105111;28;20040;-66
2022/06/26 01:32:55;;;;;;;24.85;22.45;;;19.40;99.90;;;;;;2104516;28;20039;-66
2022/06/26 01:33:56;;;;;;;24.63;22.33;;;19.40;99.90;;;;;;2096033;28;20763;-68
2022/06/26 01:34:57;;;;;;;23.95;21.65;;;19.40;99.90;;;;;;2096008;28;20055;-66
2022/06/26 01:35:58;;;;;;;24.05;21.75;;;19.40;99.90;;;;;;2095972;28;20724;-67
2022/06/26 01:36:58;;;;;;;22.83;20.83;;;19.40;99.90;;;;;;2096110;28;20659;-67
2022/06/26 01:38:16;;;;;;;23.48;21.33;;;19.40;99.90;;;;;;2095890;28;20037;-66
2022/06/26 01:39:20;;;;;;;22.45;20.50;;;19.40;99.90;;;;;;2098295;28;20025;-66
2022/06/26 01:40:21;;;;;;;23.65;21.55;;;19.40;99.90;;;;;;2104466;28;20032;-66
2022/06/26 01:41:22;;;;;;;22.10;20.10;;;19.40;99.90;;;;;;2105131;28;20028;-67
2022/06/26 01:42:24;;;;;;;22.15;19.98;;;19.30;99.90;;;;;;2104553;28;20065;-67
2022/06/26 01:43:32;;;;;;;22.75;20.65;;;19.30;99.90;;;;;;2095989;28;20508;-68
2022/06/26 01:44:33;;;;;;;23.00;20.90;;;19.30;99.90;;;;;;2096658;28;20032;-68
2022/06/26 01:45:40;;;;;;;22.45;20.35;;;19.30;99.90;;;;;;2104303;28;20024;-68
2022/06/26 01:46:42;;;;;;;21.65;19.73;;;19.30;99.90;;;;;;2097032;28;20456;-67
2022/06/26 01:47:42;;;;;;;22.13;20.05;;;19.30;99.90;;;;;;2095955;28;20107;-67
2022/06/26 01:48:43;;;;;;;24.08;21.77;;;19.30;99.90;;;;;;2095635;28;20079;-68
2022/06/26 01:49:46;;;;;;;25.42;23.02;;;19.30;99.90;;;;;;2104364;28;20456;-67
2022/06/26 01:50:47;;;;;;;26.17;23.40;;;19.30;99.90;;;;;;2104354;28;20119;-68
2022/06/26 01:51:48;;;;;;;25.63;23.23;;;19.30;99.90;;;;;;2104389;28;20967;-68
2022/06/26 01:52:49;;;;;;;24.27;21.88;;;19.30;99.90;;;;;;2095918;28;20028;-67
2022/06/26 01:53:49;;;;;;;23.25;21.23;;;19.30;99.90;;;;;;2095801;28;20070;-68
2022/06/26 01:54:50;;;;;;;23.40;21.30;;;19.30;99.90;;;;;;2095627;28;20044;-68
2022/06/26 01:55:52;;;;;;;23.80;21.50;;;19.20;99.90;;;;;;2095762;28;20071;-68
2022/06/26 01:57:01;;;;;;;24.58;22.08;;;19.30;99.90;;;;;;2103956;28;20026;-68
2022/06/26 01:58:03;;;;;;;24.42;22.13;;;19.30;99.90;;;;;;2095830;28;20063;-68
2022/06/26 01:59:03;;;;;;;25.45;22.98;;;19.20;99.90;;;;;;2087717;28;20068;-68
2022/06/26 02:00:12;;;;;;;23.70;21.40;;;19.20;99.90;;;;;;2104278;28;20645;-68
2022/06/26 02:01:14;;;;;;;24.13;21.90;;;19.20;99.90;;;;;;2096212;28;20058;-68
2022/06/26 02:02:15;;;;;;;23.52;21.42;;;19.20;99.90;;;;;;2104328;28;20043;-67
2022/06/26 02:03:17;;;;;;;24.08;21.55;;;19.20;99.90;;;;;;2095747;28;20532;-67
2022/06/26 02:04:19;;;;;;;24.05;21.65;;;19.20;99.90;;;;;;2087758;28;20120;-67
2022/06/26 02:05:20;;;;;;;23.15;21.02;;;19.20;99.90;;;;;;2104574;28;20449;-67
2022/06/26 02:06:20;;;;;;;23.20;21.00;;;19.10;99.90;;;;;;2104235;28;20028;-67
2022/06/26 02:07:21;;;;;;;24.23;21.83;;;19.10;99.90;;;;;;2096013;28;20036;-67
2022/06/26 02:08:23;;;;;;;24.13;21.85;;;19.10;99.90;;;;;;2103919;28;20024;-66
2022/06/26 02:13:37;;;;;;;23.77;21.55;;;19.10;99.90;;;;;;2104083;28;20417;-66
2022/06/26 02:14:38;;;;;;;;;;;19.10;99.90;;;;;;2097654;28;20075;-67
2022/06/26 02:15:39;;;;;;;24.15;21.85;;;19.10;99.90;;;;;;2095832;28;19915;-68
2022/06/26 02:16:39;;;;;;;24.30;21.80;;;19.10;99.90;;;;;;2104583;28;20597;-68
2022/06/26 02:17:42;;;;;;;23.95;21.67;;;19.10;99.90;;;;;;2096435;28;20052;-68
2022/06/26 02:18:49;;;;;;;24.40;22.10;;;19.10;99.90;;;;;;2104264;28;20031;-68
2022/06/26 02:19:52;;;;;;;25.02;22.63;;;19.10;99.90;;;;;;2104507;28;20029;-67
2022/06/26 02:20:54;;;;;;;26.40;23.88;;;19.10;99.90;;;;;;2096042;28;20071;-67
2022/06/26 02:21:54;;;;;;;24.52;22.23;;;19.10;99.90;;;;;;2096478;28;20560;-68
2022/06/26 02:22:55;;;;;;;25.33;22.83;;;19.00;99.90;;;;;;2104841;28;20110;-67
2022/06/26 02:23:57;;;;;;;25.85;23.35;;;19.00;99.90;;;;;;2105127;28;20052;-67
2022/06/26 02:24:57;;;;;;;24.55;22.15;;;19.00;99.90;;;;;;2104428;28;20043;-66
2022/06/26 02:25:59;;;;;;;26.35;23.85;;;19.00;99.90;;;;;;2096554;28;20033;-66
2022/06/26 02:26:59;;;;;;;26.73;24.15;;;19.00;99.90;;;;;;2104422;28;20090;-66
2022/06/26 02:28:00;;;;;;;26.58;24.08;;;19.00;99.90;;;;;;2096281;28;20067;-66
2022/06/26 02:29:02;;;;;;;25.92;23.42;;;19.00;99.90;;;;;;2096024;28;20040;-68
2022/06/26 02:30:04;;;;;;;26.17;23.55;;;19.00;99.90;;;;;;2104598;28;20612;-66
2022/06/26 02:31:05;;;;;;;26.55;23.73;;;19.00;99.90;;;;;;2104832;28;20020;-66
2022/06/26 02:32:07;;;;;;;25.15;22.67;;;19.00;99.90;;;;;;2106009;28;20024;-65
2022/06/26 02:33:08;;;;;;;24.98;22.58;;;19.00;99.90;;;;;;2105649;28;20028;-68
2022/06/26 02:34:09;;;;;;;24.50;22.27;;;19.00;99.90;;;;;;2106041;28;20020;-67
2022/06/26 02:35:10;;;;;;;24.20;21.90;;;19.00;99.90;;;;;;2106096;28;20039;-66
2022/06/26 02:36:11;;;;;;;24.42;22.10;;;19.00;99.90;;;;;;2104878;28;20028;-68
2022/06/26 02:37:14;;;;;;;24.75;22.38;;;19.00;99.90;;;;;;2104716;28;20032;-66
2022/06/26 02:38:17;;;;;;;24.05;21.75;;;19.00;99.90;;;;;;2104383;28;20024;-67
2022/06/26 02:39:20;;;;;;;23.50;21.30;;;19.00;99.90;;;;;;2096077;28;20043;-67
2022/06/26 02:40:26;;;;;;;24.58;22.17;;;19.00;99.90;;;;;;2088979;28;20033;-67
2022/06/26 02:41:28;;;;;;;23.75;21.55;;;19.00;99.90;;;;;;2096637;28;20025;-66
2022/06/26 02:42:31;;;;;;;24.55;22.25;;;19.00;99.90;;;;;;2104737;28;20054;-67
2022/06/26 02:43:33;;;;;;;24.95;22.52;;;19.00;99.90;;;;;;2096395;28;20033;-67
2022/06/26 02:44:37;;;;;;;25.08;22.60;;;19.00;99.90;;;;;;2097250;28;20032;-66
2022/06/26 02:45:41;;;;;;;26.25;23.60;;;19.00;99.90;;;;;;2104493;28;20055;-67
2022/06/26 02:46:42;;;;;;;27.05;24.35;;;19.00;99.90;;;;;;2095889;28;20477;-66
2022/06/26 02:47:45;;;;;;;25.15;22.67;;;19.00;99.90;;;;;;2096041;28;20119;-67
2022/06/26 02:48:48;;;;;;;25.73;23.17;;;18.90;99.90;;;;;;2103613;28;20034;-67
2022/06/26 02:49:50;;;;;;;27.67;24.88;;;18.90;99.90;;;;;;2095772;28;20642;-66
2022/06/26 02:50:54;;;;;;;26.58;23.83;;;18.90;99.90;;;;;;2103959;28;20024;-66
2022/06/26 02:51:55;;;;;;;25.98;23.45;;;18.90;99.90;;;;;;2095504;28;20390;-67
2022/06/26 02:53:00;;;;;;;27.50;24.80;;;18.90;99.90;;;;;;2096287;28;20116;-66
2022/06/26 02:54:03;;;;;;;26.88;24.10;;;18.90;99.90;;;;;;2103793;28;20142;-66
2022/06/26 02:55:05;;;;;;;26.90;24.30;;;18.90;99.90;;;;;;2095561;28;20518;-66
2022/06/26 02:56:09;;;;;;;25.38;22.98;;;18.90;99.90;;;;;;2096005;28;20044;-66
2022/06/26 02:57:10;;;;;;;26.55;23.85;;;18.90;99.90;;;;;;2095586;28;20020;-67
2022/06/26 02:58:11;;;;;;;27.38;24.75;;;18.90;99.90;;;;;;2095101;28;20044;-67
2022/06/26 02:59:17;;;;;;;28.52;25.27;;;19.00;99.90;;;;;;2104051;28;20068;-67
2022/06/26 03:00:18;;;;;;;29.40;26.45;;;18.90;99.90;;;;;;2103990;28;20028;-67
2022/06/26 03:01:21;;;;;;;27.50;24.77;;;19.00;99.90;;;;;;2095890;28;20040;-68
2022/06/26 03:02:26;;;;;;;26.08;23.58;;;18.90;99.90;;;;;;2096135;28;20094;-68
2022/06/26 03:03:34;;;;;;;26.02;23.42;;;19.00;99.90;;;;;;2095678;28;20035;-68
2022/06/26 03:04:35;;;;;;;26.90;24.10;;;18.90;99.90;;;;;;2095603;28;20039;-66
2022/06/26 03:05:36;;;;;;;29.35;26.25;;;18.90;99.90;;;;;;2104108;28;20123;-66
2022/06/26 03:06:39;;;;;;;27.02;24.27;;;18.90;99.90;;;;;;2103980;28;20081;-67
2022/06/26 03:07:41;;;;;;;25.90;23.25;;;18.90;99.90;;;;;;2095508;28;20031;-66
2022/06/26 03:08:43;;;;;;;26.70;23.92;;;18.90;99.90;;;;;;2095350;28;20051;-67
2022/06/26 03:09:46;;;;;;;25.83;23.33;;;18.90;99.90;;;;;;2104029;28;20024;-67
2022/06/26 03:10:49;;;;;;;26.10;23.45;;;18.90;99.90;;;;;;2095573;28;20859;-67
2022/06/26 03:11:50;;;;;;;27.60;24.73;;;18.90;99.90;;;;;;2087590;28;20055;-67
2022/06/26 03:12:51;;;;;;;26.02;23.50;;;19.00;99.90;;;;;;2087267;28;20108;-68
2022/06/26 03:13:52;;;;;;;26.08;23.42;;;19.00;99.90;;;;;;2103949;28;20020;-69
2022/06/26 03:14:53;;;;;;;26.70;24.08;;;19.00;99.90;;;;;;2104001;28;20084;-67
2022/06/26 03:15:54;;;;;;;26.75;24.05;;;19.00;99.90;;;;;;2095640;28;20039;-67
2022/06/26 03:16:55;;;;;;;27.95;25.05;;;19.00;99.90;;;;;;2105727;28;20035;-68
2022/06/26 03:17:56;;;;;;;26.40;23.80;;;19.00;99.90;;;;;;2097210;28;20024;-68
2022/06/26 03:18:57;;;;;;;26.02;23.48;;;19.00;99.90;;;;;;2105363;28;20024;-68
2022/06/26 03:19:57;;;;;;;26.00;23.50;;;18.90;99.90;;;;;;2105730;28;20497;-67
2022/06/26 03:20:59;;;;;;;25.83;23.27;;;19.00;99.90;;;;;;2097145;28;20821;-67
2022/06/26 03:21:59;;;;;;;26.15;23.40;;;19.00;99.90;;;;;;2097204;28;20047;-67
2022/06/26 03:23:00;;;;;;;26.33;23.73;;;19.00;99.90;;;;;;2105697;28;20031;-67
2022/06/26 03:24:01;;;;;;;26.48;23.73;;;19.00;99.90;;;;;;2097273;28;20114;-68
2022/06/26 03:25:04;;;;;;;27.85;25.00;;;19.10;99.90;;;;;;2097368;28;20459;-67
2022/06/26 03:26:04;;;;;;;26.23;23.60;;;19.00;99.90;;;;;;2097305;28;20561;-68
2022/06/26 03:27:05;;;;;;;28.08;25.23;;;19.00;99.90;;;;;;2097361;28;20028;-68
2022/06/26 03:28:07;;;;;;;26.65;23.90;;;19.10;99.90;;;;;;2097061;28;20489;-67
2022/06/26 03:29:14;;;;;;;28.08;24.92;;;19.10;99.90;;;;;;2098367;28;20024;-66
2022/06/26 03:30:14;;;;;;;25.60;23.08;;;19.10;99.90;;;;;;2097333;28;20104;-66
2022/06/26 03:31:21;;;;;;;26.58;23.83;;;19.10;99.90;;;;;;2105516;28;20042;-66
2022/06/26 03:32:23;;;;;;;27.20;24.50;;;19.10;99.90;;;;;;2096927;28;20032;-67
2022/06/26 03:33:35;;;;;;;27.02;24.33;;;19.20;99.90;;;;;;2099119;28;20021;-66
2022/06/26 03:34:36;;;;;;;26.67;23.98;;;19.20;99.90;;;;;;2106095;28;20051;-67
2022/06/26 03:35:37;;;;;;;27.02;24.20;;;19.20;99.90;;;;;;2106115;28;20031;-66
2022/06/26 03:36:39;;;;;;;28.95;25.95;;;19.20;99.90;;;;;;2105560;28;20436;-68
2022/06/26 03:37:40;;;;;;;28.60;25.70;;;19.20;99.90;;;;;;2096927;28;20124;-67
2022/06/26 03:38:42;;;;;;;27.35;24.48;;;19.20;99.90;;;;;;2105317;28;20051;-67
2022/06/26 03:39:45;;;;;;;26.98;24.17;;;19.20;99.90;;;;;;2097063;28;20028;-67
2022/06/26 03:40:48;;;;;;;26.13;23.42;;;19.20;99.90;;;;;;2097405;28;20054;-67
2022/06/26 03:42:01;;;;;;;26.40;23.70;;;19.20;99.90;;;;;;2097673;28;20020;-68
2022/06/26 03:43:11;;;;;;;27.08;24.30;;;19.20;99.90;;;;;;2105347;28;20028;-67
2022/06/26 03:44:21;;;;;;;29.80;26.70;;;19.30;99.90;;;;;;2097101;28;20115;-67
2022/06/26 03:45:23;;;;;;;28.80;25.70;;;19.20;99.90;;;;;;2090043;28;20032;-67
2022/06/26 03:46:23;;;;;;;28.85;25.80;;;19.20;99.90;;;;;;2097151;28;20573;-67
2022/06/26 03:47:24;;;;;;;26.55;23.95;;;19.30;99.90;;;;;;2105665;28;20537;-67
2022/06/26 03:48:28;;;;;;;25.60;23.02;;;19.30;99.90;;;;;;2106041;28;20027;-67
2022/06/26 03:49:29;;;;;;;28.55;25.52;;;19.30;99.90;;;;;;2106321;28;20031;-67
2022/06/26 03:50:35;;;;;;;27.13;24.17;;;19.30;99.90;;;;;;2098485;28;20090;-67
2022/06/26 03:51:37;;;;;;;26.40;23.73;;;19.30;99.90;;;;;;2098438;28;20490;-67
2022/06/26 03:52:39;;;;;;;26.65;23.85;;;19.30;99.90;;;;;;2098993;28;20024;-67
2022/06/26 03:53:43;;;;;;;27.30;24.48;;;19.30;99.90;;;;;;2090580;28;20021;-68
2022/06/26 03:54:48;;;;;;;27.38;24.38;;;19.30;99.90;;;;;;2091664;28;20049;-67
2022/06/26 03:55:52;;;;;;;26.58;23.98;;;19.30;99.90;;;;;;2107345;28;20330;-70
2022/06/26 03:56:56;;;;;;;26.67;24.00;;;19.30;99.90;;;;;;2107289;28;20024;-67
2022/06/26 03:58:01;;;;;;;28.27;24.92;;;19.30;99.90;;;;;;2107595;28;20032;-67
2022/06/26 03:59:06;;;;;;;26.10;23.45;;;19.30;99.90;;;;;;2099713;28;20032;-68
2022/06/26 04:00:10;;;;;;;26.40;23.80;;;19.30;99.90;;;;;;2107171;28;20086;-66
2022/06/26 04:01:17;;;;;;;26.10;23.30;;;19.30;99.90;;;;;;2108631;28;20189;-67
2022/06/26 04:02:20;;;;;;;26.85;24.10;;;19.40;99.90;;;;;;2108942;28;20124;-67
2022/06/26 04:03:23;;;;;;;27.35;24.55;;;19.30;99.90;;;;;;2100246;28;20028;-67
2022/06/26 04:04:24;;;;;;;27.75;24.85;;;19.30;99.90;;;;;;2108481;28;20035;-68
2022/06/26 04:05:26;;;;;;;28.60;25.65;;;19.30;99.90;;;;;;2107948;28;20032;-67
2022/06/26 04:06:31;;;;;;;31.60;26.85;;;19.30;99.90;;;;;;2107795;28;20034;-66
2022/06/26 04:07:38;;;;;;;30.55;27.35;;;19.30;99.90;;;;;;2107902;28;20111;-66
2022/06/26 04:09:08;;;;;;;28.42;25.45;;;19.40;99.90;;;;;;2092131;28;20024;-68
2022/06/26 04:10:10;;;;;;;27.52;24.63;;;19.40;99.90;;;;;;2096592;28;20052;-68
2022/06/26 04:11:12;;;;;;;26.27;23.65;;;19.40;99.90;;;;;;2080788;28;20025;-67
2022/06/26 04:12:15;;;;;;;27.48;24.52;;;19.40;99.90;;;;;;2080929;28;20033;-68
2022/06/26 04:13:16;;;;;;;27.75;24.52;;;19.50;99.90;;;;;;2088999;28;20059;-68
2022/06/26 04:14:18;;;;;;;27.73;24.92;;;19.60;99.90;;;;;;2104905;28;20528;-67
2022/06/26 04:15:19;;;;;;;27.50;24.65;;;19.60;99.90;;;;;;2105163;28;20030;-68
2022/06/26 04:16:20;;;;;;;26.20;23.27;;;19.80;99.90;;;;;;2104998;28;20102;-67
2022/06/26 04:17:23;;;;;;;25.48;22.85;;;20.00;99.90;;;;;;2097257;28;20044;-66
2022/06/26 04:18:35;;;;;;;24.83;22.10;;;20.30;99.90;;;;;;2097717;28;20078;-67
2022/06/26 04:19:36;;;;;;;23.90;20.58;;;20.70;99.90;;;;;;2088670;28;20024;-67
2022/06/26 04:20:37;;;;;;;21.92;19.73;;;21.10;99.90;;;;;;2096859;28;20055;-67
2022/06/26 04:21:37;;;;;;;20.40;18.33;;;21.40;99.90;;;;;;2105806;28;20028;-67
2022/06/26 04:22:42;;;;;;;20.38;18.27;;;21.80;99.90;;;;;;2105409;28;20024;-67
2022/06/26 04:23:49;;;;;;;20.98;18.77;;;22.20;99.90;;;;;;2097074;28;20375;-66
2022/06/26 04:24:52;;;;;;;20.63;18.55;;;22.50;99.90;;;;;;2097149;28;20064;-67
2022/06/26 04:25:56;;;;;;;21.10;18.67;;;22.90;99.90;;;;;;2105168;28;20103;-67
2022/06/26 04:27:01;;;;;;;20.17;18.25;;;23.20;99.90;;;;;;2105526;28;20631;-68
2022/06/26 04:28:03;;;;;;;21.42;18.20;;;23.40;99.90;;;;;;2097091;28;20182;-68
2022/06/26 04:29:11;;;;;;;19.67;17.70;;;23.70;99.90;;;;;;2091624;28;20035;-68
2022/06/26 04:30:13;;;;;;;19.77;17.65;;;24.00;99.90;;;;;;2089086;28;20036;-67
2022/06/26 04:31:17;;;;;;;19.88;17.77;;;24.10;99.90;;;;;;2090120;28;20044;-67
2022/06/26 04:32:24;;;;;;;20.27;18.17;;;24.30;99.90;;;;;;2098395;28;20025;-66
2022/06/26 04:33:26;;;;;;;20.77;18.67;;;24.50;99.90;;;;;;2105704;28;20456;-68
2022/06/26 04:34:27;;;;;;;21.17;19.08;;;24.50;99.90;;;;;;2105389;28;20032;-69
2022/06/26 04:35:29;;;;;;;23.67;20.40;;;24.60;99.90;;;;;;2105811;28;20401;-68
2022/06/26 04:36:33;;;;;;;20.42;18.42;;;24.50;99.90;;;;;;2105154;28;20525;-68
2022/06/26 04:37:34;;;;;;;20.27;18.23;;;24.60;99.90;;;;;;2105129;28;20030;-68
2022/06/26 04:38:35;;;;;;;20.30;18.30;;;24.60;99.90;;;;;;2096304;28;20028;-67
2022/06/26 04:39:35;;;;;;;20.08;18.10;;;24.70;99.90;;;;;;2096688;28;20043;-67
2022/06/26 04:40:38;;;;;;;20.10;18.00;;;24.90;99.90;;;;;;2105236;28;20024;-67
2022/06/26 04:41:39;;;;;;;20.00;18.10;;;24.90;99.90;;;;;;2096616;28;20506;-67
2022/06/26 04:42:42;;;;;;;19.05;17.15;;;25.00;99.90;;;;;;2096694;28;20116;-66
2022/06/26 04:43:43;;;;;;;20.23;18.23;;;25.10;99.90;;;;;;2096637;28;20138;-66
2022/06/26 04:44:44;;;;;;;19.55;17.55;;;25.20;99.90;;;;;;2087981;28;20131;-67
2022/06/26 04:45:45;;;;;;;22.70;20.35;;;25.30;99.90;;;;;;2088323;28;20515;-66
2022/06/26 04:46:52;;;;;;;21.88;19.67;;;25.30;99.90;;;;;;2097201;28;20111;-67
2022/06/26 04:47:56;;;;;;;20.80;18.65;;;25.20;99.90;;;;;;2104838;28;20030;-67
2022/06/26 04:48:58;;;;;;;20.05;17.98;;;25.20;99.90;;;;;;2096241;28;20059;-66
2022/06/26 04:50:00;;;;;;;19.13;17.33;;;25.30;99.90;;;;;;2096493;28;20031;-67
2022/06/26 04:51:01;;;;;;;18.40;16.70;;;25.40;99.90;;;;;;2096526;28;20103;-66
2022/06/26 04:52:02;;;;;;;23.05;19.83;;;25.60;99.90;;;;;;2096399;28;20021;-66
2022/06/26 04:53:11;;;;;;;18.77;16.90;;;25.70;99.90;;;;;;2097553;28;20024;-66
2022/06/26 04:54:12;;;;;;;19.50;17.58;;;25.70;99.90;;;;;;2096077;28;20852;-66
2022/06/26 04:55:13;;;;;;;19.67;17.65;;;25.90;99.90;;;;;;2096510;28;20021;-67
2022/06/26 04:56:17;;;;;;;18.17;16.48;;;26.00;99.90;;;;;;2088755;28;20090;-67
2022/06/26 04:57:28;;;;;;;20.05;17.92;;;26.20;99.90;;;;;;2104790;28;20058;-67
2022/06/26 04:58:28;;;;;;;18.80;16.80;;;26.40;99.90;;;;;;2104219;28;20047;-67
2022/06/26 04:59:30;;;;;;;19.25;17.38;;;26.40;99.90;;;;;;2104479;28;20024;-67
2022/06/26 05:00:38;;;;;;;21.05;18.88;;;26.40;99.90;;;;;;2096242;28;20119;-66
2022/06/26 05:01:51;;;;;;;18.80;16.90;;;26.40;99.90;;;;;;2092266;28;20448;-66
2022/06/26 05:03:09;;;;;;;20.20;18.20;;;26.40;99.90;;;;;;2098856;28;20562;-66
2022/06/26 05:04:13;;;;;;;18.25;16.48;;;26.50;99.90;;;;;;2096810;28;20052;-66
2022/06/26 05:05:40;;;;;;;23.23;20.80;;;26.60;99.90;;;;;;2097603;28;20051;-66
2022/06/26 05:07:09;;;;;;;19.08;17.17;;;26.50;99.90;;;;;;2100776;28;20027;-67
2022/06/26 05:08:12;;;;;;;18.73;16.80;;;26.40;99.90;;;;;;2095761;28;20032;-66
2022/06/26 05:09:16;;;;;;;18.73;16.90;;;26.60;99.90;;;;;;2096192;28;20539;-66
2022/06/26 05:10:17;;;;;;;18.02;16.30;;;26.70;99.90;;;;;;2095960;28;20069;-67
2022/06/26 05:11:24;;;;;;;19.23;17.33;;;26.80;99.90;;;;;;2104274;28;20031;-67
2022/06/26 05:12:27;;;;;;;19.70;17.60;;;26.90;99.90;;;;;;2095969;28;20107;-68
2022/06/26 05:13:43;;;;;;;19.77;17.88;;;26.90;99.90;;;;;;2097870;28;20036;-68
2022/06/26 05:15:03;;;;;;;18.95;16.50;;;26.90;99.90;;;;;;2104738;28;20032;-68
2022/06/26 05:16:11;;;;;;;20.48;18.50;;;27.00;99.90;;;;;;2104698;28;20027;-68
2022/06/26 05:17:13;;;;;;;19.55;17.65;;;27.00;99.90;;;;;;2105033;28;20158;-68
2022/06/26 05:18:14;;;;;;;19.92;17.83;;;26.90;99.90;;;;;;2103358;28;20056;-67
2022/06/26 05:19:15;;;;;;;20.92;18.85;;;26.90;99.90;;;;;;2096017;28;20032;-68
2022/06/26 05:20:18;;;;;;;19.75;17.80;;;26.90;99.90;;;;;;2096220;28;20063;-67
2022/06/26 05:21:19;;;;;;;18.27;16.58;;;27.00;99.90;;;;;;2095458;28;20496;-67
2022/06/26 05:22:20;;;;;;;18.10;16.30;;;27.10;99.90;;;;;;2104030;28;20025;-67
2022/06/26 05:23:24;;;;;;;17.90;16.27;;;27.40;99.90;;;;;;2095939;28;20728;-67
2022/06/26 05:24:34;;;;;;;19.58;17.60;;;27.60;99.90;;;;;;2097546;28;20024;-68
2022/06/26 05:25:34;;;;;;;17.98;16.20;;;27.70;99.90;;;;;;2104605;28;20020;-67